Cervantes, Argentina
Current Conditions -  °F | °C
As of 1:00 AM on Friday 31 Oct 2014 (Local Time) from SAZN Reporting Station
Clear Clear  
Wind Chill: 52°   Ceiling: Unl
Heat Index: 52°   Visibility: 6mi
Dew Point: 27°   Wind: 12mph
Humidity: 38%   Direction: 230°SW
Pressure: 30.06"   Gusts: NA
Location:  39.06°S, 67.34°W
Report Text: SAZN 310400Z 23010KT CAVOK 11/M03 Q1018
Loading
Personal Weather Stations






























Interactive Weather Map New forecast layout! Learn more

10-Day Weather Forecast

Advertisements
Track Severe Weather on mobile